Time;durP1;ratioP1;P1;durP2;ratioP2;P2;SDS_P1;SDS_P2;PMS_P1;PMS_P2;Temp;Humidity;BMP_temperature;BMP_pressure;BME280_temperature;BME280_humidity;BME280_pressure;Samples;Min_cycle;Max_cycle;Signal;HPM_P1;HPM_P2
2023/09/04 00:01:39;;;;;;;5.72;4.32;;;;;;;;;;5002253;28;20042;-59
2023/09/04 00:04:06;;;;;;;6.13;4.22;;;;;;;;;;4996118;28;20052;-60
2023/09/04 00:06:32;;;;;;;5.97;4.20;;;;;;;;;;4998870;28;20042;-59
2023/09/04 00:08:59;;;;;;;5.57;3.05;;;;;;;;;;4993423;28;20045;-59
2023/09/04 00:11:26;;;;;;;6.35;3.80;;;;;;;;;;4998656;28;20058;-59
2023/09/04 00:13:53;;;;;;;5.35;3.35;;;;;;;;;;4998340;28;20042;-59
2023/09/04 00:16:19;;;;;;;4.78;3.70;;;;;;;;;;5002439;28;20053;-59
2023/09/04 00:18:46;;;;;;;6.03;3.50;;;;;;;;;;4993066;28;20030;-61
2023/09/04 00:21:13;;;;;;;4.68;3.75;;;;;;;;;;4994035;28;20038;-60
2023/09/04 00:23:39;;;;;;;7.82;3.88;;;;;;;;;;4977424;28;20046;-60
2023/09/04 00:26:05;;;;;;;4.72;3.75;;;;;;;;;;4992025;28;20517;-59
2023/09/04 00:28:31;;;;;;;5.57;3.90;;;;;;;;;;4995781;28;20045;-60
2023/09/04 00:30:57;;;;;;;5.20;3.92;;;;;;;;;;4975966;28;20968;-60
2023/09/04 00:33:24;;;;;;;5.80;4.22;;;;;;;;;;4975299;28;20038;-60
2023/09/04 00:35:50;;;;;;;5.68;4.00;;;;;;;;;;4977637;28;20034;-60
2023/09/04 00:38:16;;;;;;;5.80;3.78;;;;;;;;;;4978831;28;20050;-61
2023/09/04 00:40:42;;;;;;;6.43;3.70;;;;;;;;;;4993591;28;20413;-59
2023/09/04 00:43:08;;;;;;;5.85;3.70;;;;;;;;;;4982345;28;20041;-60
2023/09/04 00:45:35;;;;;;;5.65;3.80;;;;;;;;;;4984614;28;20516;-60
2023/09/04 00:48:03;;;;;;;6.13;3.97;;;;;;;;;;4999081;28;20053;-60
2023/09/04 00:50:30;;;;;;;7.13;3.40;;;;;;;;;;4992747;28;20334;-61
2023/09/04 00:53:01;;;;;;;7.68;3.83;;;;;;;;;;4998170;28;20413;-59
2023/09/04 00:55:28;;;;;;;5.75;3.90;;;;;;;;;;4997075;28;20053;-59
2023/09/04 00:57:55;;;;;;;6.30;3.75;;;;;;;;;;4995139;28;20125;-59
2023/09/04 01:00:27;;;;;;;4.85;3.50;;;;;;;;;;4972732;28;20224;-59
2023/09/04 01:02:54;;;;;;;5.88;3.70;;;;;;;;;;4981931;28;20033;-60
2023/09/04 01:05:20;;;;;;;6.57;4.57;;;;;;;;;;4978630;28;20049;-60
2023/09/04 01:07:48;;;;;;;6.45;4.45;;;;;;;;;;4997268;28;20049;-59
2023/09/04 01:10:14;;;;;;;6.70;4.15;;;;;;;;;;4991483;28;20048;-59
2023/09/04 01:13:04;;;;;;;8.90;5.13;;;;;;;;;;4998403;28;20037;-59
2023/09/04 01:15:31;;;;;;;7.43;4.50;;;;;;;;;;4997804;28;20035;-60
2023/09/04 01:17:59;;;;;;;6.20;4.00;;;;;;;;;;5001351;28;20035;-60
2023/09/04 01:20:30;;;;;;;5.25;3.85;;;;;;;;;;4994084;28;20038;-60
2023/09/04 01:22:56;;;;;;;7.75;3.78;;;;;;;;;;4975456;28;20045;-60
2023/09/04 01:25:43;;;;;;;5.50;3.88;;;;;;;;;;4992670;28;20557;-60
2023/09/04 01:28:24;;;;;;;5.65;4.22;;;;;;;;;;4978080;28;20505;-60
2023/09/04 01:31:13;;;;;;;6.63;3.95;;;;;;;;;;4991716;28;20757;-60
2023/09/04 01:33:50;;;;;;;7.63;4.78;;;;;;;;;;4978312;28;20050;-60
2023/09/04 01:36:18;;;;;;;8.00;4.88;;;;;;;;;;4997871;28;20048;-60
2023/09/04 01:38:45;;;;;;;5.95;4.10;;;;;;;;;;4995722;28;20481;-60
2023/09/04 01:41:12;;;;;;;8.15;4.25;;;;;;;;;;4989868;28;20053;-60
2023/09/04 01:43:38;;;;;;;8.05;4.80;;;;;;;;;;4996382;28;20044;-60
2023/09/04 01:46:04;;;;;;;5.35;3.38;;;;;;;;;;5001107;28;20053;-60
2023/09/04 01:48:31;;;;;;;6.53;4.47;;;;;;;;;;4980862;28;20532;-60
2023/09/04 01:50:57;;;;;;;6.57;4.20;;;;;;;;;;4973736;28;20049;-60
2023/09/04 01:53:23;;;;;;;15.73;8.40;;;;;;;;;;4991921;28;20050;-60
2023/09/04 01:55:49;;;;;;;11.38;5.72;;;;;;;;;;4981944;28;20062;-60
2023/09/04 01:58:15;;;;;;;7.75;4.05;;;;;;;;;;4981770;28;20056;-60
2023/09/04 02:00:43;;;;;;;6.15;4.30;;;;;;;;;;4975235;28;20639;-60
2023/09/04 02:03:09;;;;;;;6.65;4.30;;;;;;;;;;4994168;28;20067;-60
2023/09/04 02:05:39;;;;;;;7.57;4.05;;;;;;;;;;4983275;28;20046;-60
2023/09/04 02:08:07;;;;;;;8.25;4.43;;;;;;;;;;4997212;28;20084;-60
2023/09/04 02:10:35;;;;;;;6.45;3.92;;;;;;;;;;4990840;28;20054;-60
2023/09/04 02:13:02;;;;;;;7.05;4.03;;;;;;;;;;4993060;28;20050;-59
2023/09/04 02:15:32;;;;;;;6.38;4.18;;;;;;;;;;4981501;28;20490;-59
2023/09/04 02:18:04;;;;;;;5.88;4.00;;;;;;;;;;4993735;28;20508;-61
2023/09/04 02:20:30;;;;;;;5.80;3.90;;;;;;;;;;5010482;28;20026;-61
2023/09/04 02:22:57;;;;;;;6.68;4.22;;;;;;;;;;4995621;28;20030;-61
2023/09/04 02:25:24;;;;;;;5.63;4.00;;;;;;;;;;4974644;28;20057;-61
2023/09/04 02:27:51;;;;;;;7.93;5.22;;;;;;;;;;4996838;28;20057;-61
2023/09/04 02:30:18;;;;;;;8.40;4.30;;;;;;;;;;4975434;28;20050;-60
2023/09/04 02:32:44;;;;;;;7.05;4.43;;;;;;;;;;4996855;28;20049;-61
2023/09/04 02:35:10;;;;;;;8.80;4.75;;;;;;;;;;4995787;28;20053;-60
2023/09/04 02:37:36;;;;;;;7.63;4.32;;;;;;;;;;4995030;28;20378;-60
2023/09/04 02:40:05;;;;;;;6.80;4.60;;;;;;;;;;4976929;28;20053;-60
2023/09/04 02:42:32;;;;;;;6.35;4.40;;;;;;;;;;4999033;28;20046;-59
2023/09/04 02:44:58;;;;;;;8.55;4.07;;;;;;;;;;4985753;28;20038;-60
2023/09/04 02:47:24;;;;;;;6.47;4.45;;;;;;;;;;4975210;28;21018;-60
2023/09/04 02:49:51;;;;;;;6.22;4.22;;;;;;;;;;4979937;28;20057;-60
2023/09/04 02:52:17;;;;;;;6.57;4.72;;;;;;;;;;4994893;28;20062;-60
2023/09/04 02:54:44;;;;;;;6.13;4.47;;;;;;;;;;5001217;28;20103;-60
2023/09/04 02:57:10;;;;;;;9.80;4.93;;;;;;;;;;4980727;28;20108;-61
2023/09/04 02:59:36;;;;;;;7.10;4.68;;;;;;;;;;4997373;28;20513;-60
2023/09/04 03:02:03;;;;;;;8.35;4.47;;;;;;;;;;4982110;28;20031;-60
2023/09/04 03:04:29;;;;;;;6.05;4.00;;;;;;;;;;5003817;28;20042;-60
2023/09/04 03:06:56;;;;;;;7.72;4.60;;;;;;;;;;4974843;28;20037;-60
2023/09/04 03:09:22;;;;;;;6.35;4.53;;;;;;;;;;4983659;28;20042;-60
2023/09/04 03:11:48;;;;;;;6.65;4.32;;;;;;;;;;5003978;28;20412;-60
2023/09/04 03:14:15;;;;;;;8.68;4.10;;;;;;;;;;5005068;28;20038;-61
2023/09/04 03:16:45;;;;;;;7.15;4.38;;;;;;;;;;5011737;28;20037;-60
2023/09/04 03:19:11;;;;;;;7.10;4.53;;;;;;;;;;4989921;28;20041;-60
2023/09/04 03:21:37;;;;;;;9.45;4.40;;;;;;;;;;4973972;28;20037;-61
2023/09/04 03:24:03;;;;;;;6.07;4.40;;;;;;;;;;4977332;28;20402;-61
2023/09/04 03:26:30;;;;;;;7.30;4.40;;;;;;;;;;4974421;28;20417;-60
2023/09/04 03:28:56;;;;;;;8.82;4.82;;;;;;;;;;4976493;28;20661;-60
2023/09/04 03:31:22;;;;;;;6.47;4.47;;;;;;;;;;4974717;28;20073;-60
2023/09/04 03:33:48;;;;;;;8.20;4.82;;;;;;;;;;4980033;28;20038;-59
2023/09/04 03:36:14;;;;;;;7.18;4.75;;;;;;;;;;4996730;28;20416;-60
2023/09/04 03:38:40;;;;;;;6.32;4.68;;;;;;;;;;4976456;28;20102;-60
2023/09/04 03:41:08;;;;;;;12.68;4.70;;;;;;;;;;4977468;28;20030;-59
2023/09/04 03:43:34;;;;;;;13.30;4.97;;;;;;;;;;4998663;28;20049;-61
2023/09/04 03:46:00;;;;;;;8.75;4.68;;;;;;;;;;5002270;28;20040;-59
2023/09/04 03:48:27;;;;;;;7.38;4.53;;;;;;;;;;4979571;28;20038;-59
2023/09/04 03:50:53;;;;;;;7.93;5.22;;;;;;;;;;4972763;28;20513;-59
2023/09/04 03:53:19;;;;;;;7.40;4.78;;;;;;;;;;4996022;28;21347;-60
2023/09/04 03:55:45;;;;;;;8.40;4.72;;;;;;;;;;4996051;28;20540;-60
2023/09/04 03:58:12;;;;;;;8.93;4.53;;;;;;;;;;4982380;28;20512;-60
2023/09/04 04:00:38;;;;;;;7.53;4.93;;;;;;;;;;4989200;28;20050;-61
2023/09/04 04:03:04;;;;;;;9.27;5.18;;;;;;;;;;5000509;28;20514;-61
2023/09/04 04:05:30;;;;;;;10.77;4.88;;;;;;;;;;4975335;28;20046;-61
2023/09/04 04:07:56;;;;;;;6.95;4.85;;;;;;;;;;4986580;28;20049;-60
2023/09/04 04:10:22;;;;;;;8.40;5.13;;;;;;;;;;4994662;28;20518;-61
2023/09/04 04:12:54;;;;;;;8.60;4.93;;;;;;;;;;4980111;28;20034;-60
2023/09/04 04:15:21;;;;;;;8.10;4.78;;;;;;;;;;4987743;28;20114;-61
2023/09/04 04:17:47;;;;;;;7.63;4.75;;;;;;;;;;4988173;28;20054;-60
2023/09/04 04:20:15;;;;;;;11.60;5.28;;;;;;;;;;4974194;28;20057;-61
2023/09/04 04:22:41;;;;;;;7.78;4.88;;;;;;;;;;4975313;28;20049;-60
2023/09/04 04:25:08;;;;;;;9.10;5.13;;;;;;;;;;4992866;28;20033;-60
2023/09/04 04:27:34;;;;;;;8.85;5.10;;;;;;;;;;4973985;28;20553;-60
2023/09/04 04:30:02;;;;;;;10.70;5.60;;;;;;;;;;4973726;28;20049;-60
2023/09/04 04:32:30;;;;;;;;;;;;;;;;;;4981410;28;20422;-60
2023/09/04 04:34:56;;;;;;;8.48;5.22;;;;;;;;;;4983016;28;19918;-61
2023/09/04 04:37:23;;;;;;;11.60;5.68;;;;;;;;;;4979498;28;20034;-61
2023/09/04 04:39:51;;;;;;;9.27;5.72;;;;;;;;;;4980094;28;20042;-61
2023/09/04 04:42:17;;;;;;;9.15;5.38;;;;;;;;;;4981980;28;20030;-60
2023/09/04 04:44:43;;;;;;;11.80;5.65;;;;;;;;;;4985921;28;20054;-60
2023/09/04 04:47:10;;;;;;;9.60;5.85;;;;;;;;;;4993299;28;20049;-61
2023/09/04 04:49:36;;;;;;;9.50;5.43;;;;;;;;;;4979181;28;20053;-59
2023/09/04 04:52:03;;;;;;;10.27;5.53;;;;;;;;;;4988283;28;20034;-59
2023/09/04 04:54:29;;;;;;;9.65;5.72;;;;;;;;;;4968831;28;20041;-59
2023/09/04 04:56:55;;;;;;;8.50;5.45;;;;;;;;;;4997319;28;20030;-59
2023/09/04 04:59:21;;;;;;;8.60;5.60;;;;;;;;;;4995030;28;20057;-60
2023/09/04 05:01:47;;;;;;;8.60;5.40;;;;;;;;;;5001816;28;20030;-59
2023/09/04 05:04:13;;;;;;;10.70;5.78;;;;;;;;;;4979528;28;20552;-60
2023/09/04 05:06:39;;;;;;;8.07;4.90;;;;;;;;;;4991316;28;20112;-60
2023/09/04 05:09:06;;;;;;;8.13;5.35;;;;;;;;;;4988358;28;20052;-58
2023/09/04 05:11:34;;;;;;;11.50;6.32;;;;;;;;;;4992431;28;20121;-59
2023/09/04 05:14:00;;;;;;;11.65;6.00;;;;;;;;;;4985413;28;20038;-59
2023/09/04 05:16:27;;;;;;;10.50;5.28;;;;;;;;;;4992983;28;20041;-59
2023/09/04 05:18:54;;;;;;;11.25;5.68;;;;;;;;;;4979279;28;20057;-59
2023/09/04 05:21:20;;;;;;;10.23;5.93;;;;;;;;;;4976065;28;22173;-61
2023/09/04 05:23:47;;;;;;;12.85;5.90;;;;;;;;;;4978937;28;20045;-59
2023/09/04 05:26:13;;;;;;;11.85;5.93;;;;;;;;;;4979317;28;20053;-59
2023/09/04 05:28:40;;;;;;;11.30;6.00;;;;;;;;;;4993582;28;20038;-60
2023/09/04 05:31:06;;;;;;;10.73;6.18;;;;;;;;;;5003868;28;20065;-60
2023/09/04 05:33:32;;;;;;;10.55;6.18;;;;;;;;;;4999830;28;20391;-60
2023/09/04 05:35:58;;;;;;;11.60;6.40;;;;;;;;;;5008746;28;20045;-59
2023/09/04 05:38:24;;;;;;;10.40;6.32;;;;;;;;;;4996100;28;20103;-60
2023/09/04 05:40:54;;;;;;;10.52;6.07;;;;;;;;;;4981042;28;20030;-59
2023/09/04 05:43:21;;;;;;;8.82;5.47;;;;;;;;;;4997211;28;20054;-58
2023/09/04 05:45:48;;;;;;;10.90;5.35;;;;;;;;;;5000665;28;20045;-57
2023/09/04 05:48:14;;;;;;;11.23;6.63;;;;;;;;;;4997010;28;20044;-58
2023/09/04 05:50:41;;;;;;;12.07;5.80;;;;;;;;;;4981201;28;20041;-59
2023/09/04 05:53:07;;;;;;;13.75;6.93;;;;;;;;;;4984500;28;20038;-59
2023/09/04 05:55:36;;;;;;;11.50;7.13;;;;;;;;;;5004540;28;20031;-60
2023/09/04 05:58:03;;;;;;;9.63;6.57;;;;;;;;;;4999854;28;20052;-60
2023/09/04 06:00:29;;;;;;;11.95;6.55;;;;;;;;;;4988365;28;20090;-60
2023/09/04 06:02:55;;;;;;;13.10;6.90;;;;;;;;;;5001625;28;20034;-59
2023/09/04 06:05:21;;;;;;;11.20;6.82;;;;;;;;;;5003554;28;20054;-60
2023/09/04 06:07:47;;;;;;;13.38;7.30;;;;;;;;;;5010378;28;20036;-59
2023/09/04 06:10:13;;;;;;;13.43;8.13;;;;;;;;;;5005875;28;20699;-60
2023/09/04 06:12:40;;;;;;;11.98;7.13;;;;;;;;;;5001670;28;20038;-59
2023/09/04 06:15:07;;;;;;;14.98;8.02;;;;;;;;;;4976659;28;20037;-60
2023/09/04 06:17:33;;;;;;;19.27;8.25;;;;;;;;;;4990908;28;20410;-59
2023/09/04 06:19:59;;;;;;;12.45;7.43;;;;;;;;;;4974633;28;20050;-59
2023/09/04 06:22:25;;;;;;;13.52;7.80;;;;;;;;;;4980030;28;20049;-59
2023/09/04 06:24:51;;;;;;;13.32;8.13;;;;;;;;;;4995465;28;20034;-59
2023/09/04 06:27:17;;;;;;;14.20;7.38;;;;;;;;;;4991863;28;20057;-58
2023/09/04 06:29:43;;;;;;;12.90;7.93;;;;;;;;;;4975570;28;20041;-59
2023/09/04 06:32:10;;;;;;;11.95;7.47;;;;;;;;;;4993608;28;20039;-59
2023/09/04 06:34:36;;;;;;;17.50;7.60;;;;;;;;;;4997503;28;20057;-59
2023/09/04 06:37:03;;;;;;;12.52;7.13;;;;;;;;;;5000504;28;20516;-58
2023/09/04 06:39:29;;;;;;;13.05;7.38;;;;;;;;;;4996926;28;20045;-59
2023/09/04 06:41:55;;;;;;;13.80;8.02;;;;;;;;;;4997766;28;20054;-59
2023/09/04 06:44:24;;;;;;;;;;;;;;;;;;4983456;28;20065;-60
2023/09/04 06:46:50;;;;;;;14.57;7.32;;;;;;;;;;4992652;28;20399;-60
2023/09/04 06:49:17;;;;;;;12.98;7.60;;;;;;;;;;4998101;28;20413;-60
2023/09/04 06:51:43;;;;;;;13.45;8.00;;;;;;;;;;5001823;28;20038;-60
2023/09/04 06:54:09;;;;;;;14.23;8.07;;;;;;;;;;4985811;28;20061;-60
2023/09/04 06:56:35;;;;;;;16.10;7.72;;;;;;;;;;5006369;28;20038;-60
2023/09/04 06:59:01;;;;;;;13.48;7.55;;;;;;;;;;5005321;28;20041;-60
2023/09/04 07:01:28;;;;;;;12.30;7.07;;;;;;;;;;4987123;28;20035;-61
2023/09/04 07:03:54;;;;;;;16.80;7.45;;;;;;;;;;4995366;28;20061;-60
2023/09/04 07:06:20;;;;;;;11.60;7.20;;;;;;;;;;4999026;28;20042;-60
2023/09/04 07:08:46;;;;;;;12.90;7.32;;;;;;;;;;5007164;28;20045;-60
2023/09/04 07:11:12;;;;;;;11.68;6.82;;;;;;;;;;4997459;28;20053;-60
2023/09/04 07:13:39;;;;;;;15.27;7.95;;;;;;;;;;5005125;28;20033;-60
2023/09/04 07:16:05;;;;;;;12.43;7.57;;;;;;;;;;5012173;28;20037;-60
2023/09/04 07:18:32;;;;;;;11.05;6.57;;;;;;;;;;4990433;28;20397;-60
2023/09/04 07:20:58;;;;;;;11.85;7.10;;;;;;;;;;4980636;28;20046;-59
2023/09/04 07:23:24;;;;;;;11.50;7.20;;;;;;;;;;4990107;28;20710;-59
2023/09/04 07:25:54;;;;;;;11.40;6.75;;;;;;;;;;4991839;28;20049;-59
2023/09/04 07:28:20;;;;;;;12.88;7.75;;;;;;;;;;4989209;28;20142;-60
2023/09/04 07:30:46;;;;;;;10.48;7.45;;;;;;;;;;4989339;28;20065;-60
2023/09/04 07:33:13;;;;;;;12.43;7.30;;;;;;;;;;4992088;28;20042;-60
2023/09/04 07:35:40;;;;;;;10.75;6.90;;;;;;;;;;4990335;28;20041;-60
2023/09/04 07:38:06;;;;;;;11.77;6.80;;;;;;;;;;4991810;28;20041;-59
2023/09/04 07:40:34;;;;;;;13.73;7.95;;;;;;;;;;4994298;28;20542;-59
2023/09/04 07:43:01;;;;;;;11.18;6.85;;;;;;;;;;4977101;28;20486;-59
2023/09/04 07:45:27;;;;;;;11.35;7.07;;;;;;;;;;5000865;28;20051;-60
2023/09/04 07:47:53;;;;;;;10.75;7.20;;;;;;;;;;4996287;28;20402;-60
2023/09/04 07:50:19;;;;;;;10.55;6.97;;;;;;;;;;4995778;28;20042;-59
2023/09/04 07:52:45;;;;;;;13.38;7.07;;;;;;;;;;4992722;28;20064;-60
2023/09/04 07:55:12;;;;;;;11.35;6.85;;;;;;;;;;4991765;28;20054;-60
2023/09/04 07:57:38;;;;;;;13.32;7.15;;;;;;;;;;4974683;28;20413;-60
2023/09/04 08:00:05;;;;;;;13.23;6.85;;;;;;;;;;4991410;28;20041;-60
2023/09/04 08:02:39;;;;;;;11.80;7.10;;;;;;;;;;4994556;28;20026;-60
2023/09/04 08:05:05;;;;;;;11.85;7.55;;;;;;;;;;4978837;28;20038;-60
2023/09/04 08:07:31;;;;;;;10.35;6.88;;;;;;;;;;5001953;28;20074;-59
2023/09/04 08:09:58;;;;;;;10.52;6.63;;;;;;;;;;4997104;28;20038;-60
2023/09/04 08:12:24;;;;;;;10.70;6.57;;;;;;;;;;5000420;28;20501;-60
2023/09/04 08:14:51;;;;;;;13.45;7.53;;;;;;;;;;4985751;28;20038;-59
2023/09/04 08:17:17;;;;;;;11.95;7.35;;;;;;;;;;4993311;28;20041;-60
2023/09/04 08:19:44;;;;;;;9.88;6.75;;;;;;;;;;4997600;28;20061;-60
2023/09/04 08:22:10;;;;;;;12.25;7.15;;;;;;;;;;4996290;28;20029;-60
2023/09/04 08:24:36;;;;;;;13.00;7.32;;;;;;;;;;4996426;28;20034;-60
2023/09/04 08:27:02;;;;;;;9.52;6.95;;;;;;;;;;4998600;28;20046;-60
2023/09/04 08:29:28;;;;;;;10.60;7.00;;;;;;;;;;5001987;28;20387;-59
2023/09/04 08:31:54;;;;;;;11.75;6.50;;;;;;;;;;5002677;28;20053;-59
2023/09/04 08:34:20;;;;;;;10.73;6.40;;;;;;;;;;4977097;28;20050;-59
2023/09/04 08:36:47;;;;;;;7.70;5.80;;;;;;;;;;5002902;28;20046;-59
2023/09/04 08:39:13;;;;;;;9.98;5.90;;;;;;;;;;4996571;28;20037;-59
2023/09/04 08:41:39;;;;;;;7.63;5.57;;;;;;;;;;4993834;28;20030;-60
2023/09/04 08:44:05;;;;;;;7.78;5.03;;;;;;;;;;4996528;28;20085;-60
2023/09/04 08:46:32;;;;;;;7.75;5.22;;;;;;;;;;4998956;28;20038;-61
2023/09/04 08:49:01;;;;;;;7.13;5.30;;;;;;;;;;4981050;28;20033;-60
2023/09/04 08:51:28;;;;;;;7.20;5.88;;;;;;;;;;4998436;28;20053;-60
2023/09/04 08:53:55;;;;;;;8.15;5.25;;;;;;;;;;4999871;28;20496;-60
2023/09/04 08:56:22;;;;;;;6.43;5.25;;;;;;;;;;5001171;28;20030;-60
2023/09/04 08:58:48;;;;;;;8.77;5.28;;;;;;;;;;4980860;28;20029;-60
2023/09/04 09:01:15;;;;;;;7.38;5.43;;;;;;;;;;4987053;28;20041;-60
2023/09/04 09:03:42;;;;;;;8.05;5.18;;;;;;;;;;5009685;28;20046;-60
2023/09/04 09:06:08;;;;;;;9.25;5.25;;;;;;;;;;4982687;28;20063;-60
2023/09/04 09:08:35;;;;;;;6.47;5.32;;;;;;;;;;5000220;28;20041;-60
2023/09/04 09:11:03;;;;;;;6.22;4.63;;;;;;;;;;5002294;28;20053;-60
2023/09/04 09:13:29;;;;;;;7.03;5.00;;;;;;;;;;4989806;28;20049;-60
2023/09/04 09:15:55;;;;;;;6.78;4.55;;;;;;;;;;4993620;28;20049;-60
2023/09/04 09:18:36;;;;;;;7.43;4.63;;;;;;;;;;4973396;28;20496;-59
2023/09/04 09:21:20;;;;;;;6.22;4.38;;;;;;;;;;4992920;28;20057;-60
2023/09/04 09:23:46;;;;;;;6.40;4.50;;;;;;;;;;5001318;28;20045;-59
2023/09/04 09:26:12;;;;;;;8.13;4.75;;;;;;;;;;4994682;28;20509;-60
2023/09/04 09:28:42;;;;;;;5.40;4.35;;;;;;;;;;4995155;28;20513;-59
2023/09/04 09:31:08;;;;;;;5.65;4.57;;;;;;;;;;4977221;28;20034;-60
2023/09/04 09:33:34;;;;;;;8.82;4.55;;;;;;;;;;4994937;28;20050;-60
2023/09/04 09:36:00;;;;;;;5.07;4.45;;;;;;;;;;4999188;28;20409;-60
2023/09/04 09:38:27;;;;;;;4.20;3.78;;;;;;;;;;4976205;28;20038;-59
2023/09/04 09:40:55;;;;;;;5.15;4.18;;;;;;;;;;4995129;28;20034;-59
2023/09/04 09:43:21;;;;;;;6.68;4.30;;;;;;;;;;4998397;28;20046;-59
2023/09/04 09:45:49;;;;;;;6.25;3.80;;;;;;;;;;4994481;28;20048;-59
2023/09/04 09:48:16;;;;;;;5.30;3.97;;;;;;;;;;5001519;28;20484;-60
2023/09/04 09:50:43;;;;;;;5.15;3.92;;;;;;;;;;4983318;28;20405;-58
2023/09/04 09:53:09;;;;;;;6.90;3.95;;;;;;;;;;4989465;28;20031;-60
2023/09/04 09:55:36;;;;;;;5.00;4.10;;;;;;;;;;4977081;28;20034;-60
2023/09/04 09:58:06;;;;;;;;;;;;;;;;;;4993206;28;20053;-60
2023/09/04 10:00:34;;;;;;;5.45;3.90;;;;;;;;;;5000843;28;19941;-60
2023/09/04 10:03:00;;;;;;;5.88;4.13;;;;;;;;;;5002743;28;20041;-60
2023/09/04 10:05:28;;;;;;;5.30;3.67;;;;;;;;;;5002901;28;20042;-60
2023/09/04 10:08:01;;;;;;;5.10;3.63;;;;;;;;;;5008915;28;20512;-61
2023/09/04 10:10:38;;;;;;;6.22;3.80;;;;;;;;;;4999921;28;20038;-61
2023/09/04 10:13:13;;;;;;;5.07;3.45;;;;;;;;;;4990217;28;20033;-61
2023/09/04 10:15:44;;;;;;;4.93;3.70;;;;;;;;;;4992319;28;20035;-61
2023/09/04 10:18:26;;;;;;;4.65;3.47;;;;;;;;;;4972951;28;20038;-61
2023/09/04 10:20:53;;;;;;;;;;;;;;;;;;4977004;28;20042;-61
2023/09/04 10:23:26;;;;;;;3.80;3.30;;;;;;;;;;4989383;28;19913;-61
2023/09/04 10:26:12;;;;;;;5.13;3.60;;;;;;;;;;4991767;28;20053;-60
2023/09/04 10:28:50;;;;;;;3.63;3.30;;;;;;;;;;5000407;28;20034;-60
2023/09/04 10:31:18;;;;;;;6.05;3.30;;;;;;;;;;4986071;28;20061;-60
2023/09/04 10:33:44;;;;;;;3.90;2.95;;;;;;;;;;4994747;28;20057;-60
2023/09/04 10:36:11;;;;;;;4.28;3.15;;;;;;;;;;4991150;28;20547;-61
2023/09/04 10:38:38;;;;;;;6.13;2.95;;;;;;;;;;4995042;28;20068;-59
2023/09/04 10:41:05;;;;;;;4.43;2.70;;;;;;;;;;4997098;28;20440;-60
2023/09/04 10:43:51;;;;;;;3.25;2.90;;;;;;;;;;4992632;28;20045;-61
2023/09/04 10:46:17;;;;;;;3.90;2.80;;;;;;;;;;4987783;28;20053;-60
2023/09/04 10:48:48;;;;;;;5.55;3.10;;;;;;;;;;5002443;28;20535;-59
2023/09/04 10:51:38;;;;;;;3.70;3.00;;;;;;;;;;4990306;28;20042;-60
2023/09/04 10:54:13;;;;;;;3.25;2.88;;;;;;;;;;4991034;28;20407;-60
2023/09/04 10:57:00;;;;;;;4.90;3.45;;;;;;;;;;5005299;28;20042;-60
2023/09/04 10:59:30;;;;;;;4.72;2.47;;;;;;;;;;5004863;28;20050;-60
2023/09/04 11:01:56;;;;;;;3.40;2.70;;;;;;;;;;5000822;28;20086;-60
2023/09/04 11:04:29;;;;;;;3.17;2.70;;;;;;;;;;5000331;28;20049;-61
2023/09/04 11:07:20;;;;;;;4.45;2.80;;;;;;;;;;5002619;28;20060;-60
2023/09/04 11:10:06;;;;;;;4.07;2.50;;;;;;;;;;5005941;28;20036;-61
2023/09/04 11:12:37;;;;;;;3.75;2.40;;;;;;;;;;4968098;28;20045;-61
2023/09/04 11:15:16;;;;;;;3.40;2.28;;;;;;;;;;4989742;28;20035;-61
2023/09/04 11:17:49;;;;;;;2.90;2.50;;;;;;;;;;4998803;28;20500;-61
2023/09/04 11:20:16;;;;;;;3.80;2.72;;;;;;;;;;4990275;28;20041;-61
2023/09/04 11:22:49;;;;;;;4.60;2.78;;;;;;;;;;4990479;28;20551;-62
2023/09/04 11:25:16;;;;;;;3.17;2.30;;;;;;;;;;4974776;28;20401;-62
2023/09/04 11:27:50;;;;;;;4.78;2.50;;;;;;;;;;4990399;28;20038;-62
2023/09/04 11:30:16;;;;;;;3.58;2.53;;;;;;;;;;4992705;28;20045;-62
2023/09/04 11:32:45;;;;;;;3.83;2.47;;;;;;;;;;4992594;28;20405;-61
2023/09/04 11:35:13;;;;;;;3.70;2.30;;;;;;;;;;4992605;28;20038;-60
2023/09/04 11:37:39;;;;;;;3.13;2.60;;;;;;;;;;4993262;28;20505;-61
2023/09/04 11:40:06;;;;;;;3.95;2.50;;;;;;;;;;4995531;28;20038;-62
2023/09/04 11:42:33;;;;;;;2.65;2.40;;;;;;;;;;4999672;28;20031;-62
2023/09/04 11:45:00;;;;;;;3.58;2.38;;;;;;;;;;5001426;28;20053;-61
2023/09/04 11:47:26;;;;;;;4.65;2.70;;;;;;;;;;5001294;28;20069;-61
2023/09/04 11:49:53;;;;;;;4.85;2.85;;;;;;;;;;4984731;28;20052;-62
2023/09/04 11:52:28;;;;;;;3.20;2.78;;;;;;;;;;4994426;28;20061;-62
2023/09/04 11:54:57;;;;;;;3.03;2.50;;;;;;;;;;4995733;28;20033;-61
2023/09/04 11:57:23;;;;;;;3.65;2.50;;;;;;;;;;4996889;28;20050;-62
2023/09/04 11:59:49;;;;;;;10.73;2.75;;;;;;;;;;4984088;28;20026;-61
2023/09/04 12:02:16;;;;;;;3.47;2.60;;;;;;;;;;4996579;28;20058;-62
2023/09/04 12:04:42;;;;;;;4.63;2.88;;;;;;;;;;4985552;28;20041;-62
2023/09/04 12:07:08;;;;;;;5.50;2.85;;;;;;;;;;5004589;28;20039;-62
2023/09/04 12:09:36;;;;;;;3.25;2.70;;;;;;;;;;4999267;28;20092;-61
2023/09/04 12:12:04;;;;;;;3.50;2.60;;;;;;;;;;4996935;28;20046;-62
2023/09/04 12:14:30;;;;;;;5.00;2.90;;;;;;;;;;4996827;28;20046;-62
2023/09/04 12:16:57;;;;;;;3.95;3.03;;;;;;;;;;4982855;28;20497;-61
2023/09/04 12:19:27;;;;;;;4.00;2.90;;;;;;;;;;4991468;28;20054;-61
2023/09/04 12:21:53;;;;;;;6.80;3.05;;;;;;;;;;4996488;28;20505;-61
2023/09/04 12:24:20;;;;;;;5.28;2.90;;;;;;;;;;4994928;28;20049;-61
2023/09/04 12:26:48;;;;;;;3.10;2.70;;;;;;;;;;4981607;28;20053;-61
2023/09/04 12:29:14;;;;;;;;;;;;;;;;;;4994948;28;20037;-61
2023/09/04 12:31:42;;;;;;;5.82;2.90;;;;;;;;;;4997331;28;20449;-61
2023/09/04 12:34:08;;;;;;;;;;;;;;;;;;4973631;28;20058;-61
2023/09/04 12:36:34;;;;;;;4.05;2.92;;;;;;;;;;4993837;28;20319;-61
2023/09/04 12:39:01;;;;;;;4.47;3.20;;;;;;;;;;4999885;28;20056;-61
2023/09/04 12:41:27;;;;;;;3.58;3.08;;;;;;;;;;4996299;28;20038;-61
2023/09/04 12:43:54;;;;;;;4.55;3.10;;;;;;;;;;4990382;28;20517;-61
2023/09/04 12:46:20;;;;;;;4.40;3.00;;;;;;;;;;4991470;28;20054;-61
2023/09/04 12:48:46;;;;;;;4.20;3.50;;;;;;;;;;4999538;28;20049;-62
2023/09/04 12:51:12;;;;;;;4.25;3.00;;;;;;;;;;4994853;28;20050;-62
2023/09/04 12:53:41;;;;;;;4.68;3.10;;;;;;;;;;4994052;28;20046;-61
2023/09/04 12:56:10;;;;;;;;;;;;;;;;;;4962590;28;20609;-62
2023/09/04 12:58:41;;;;;;;4.10;3.03;;;;;;;;;;4996097;28;20282;-62
2023/09/04 13:01:07;;;;;;;3.50;3.20;;;;;;;;;;4979335;28;20045;-62
2023/09/04 13:03:33;;;;;;;5.32;2.88;;;;;;;;;;4988339;28;20046;-62
2023/09/04 13:05:59;;;;;;;4.47;3.20;;;;;;;;;;4991754;28;20030;-62
2023/09/04 13:08:28;;;;;;;3.67;3.25;;;;;;;;;;4996996;28;20037;-61
2023/09/04 13:10:54;;;;;;;3.83;3.00;;;;;;;;;;4989017;28;20046;-62
2023/09/04 13:13:20;;;;;;;4.82;2.78;;;;;;;;;;4990720;28;20054;-62
2023/09/04 13:15:46;;;;;;;3.47;3.10;;;;;;;;;;5000180;28;20038;-62
2023/09/04 13:18:13;;;;;;;5.80;3.33;;;;;;;;;;4993615;28;20040;-61
2023/09/04 13:20:39;;;;;;;6.38;3.03;;;;;;;;;;4993280;28;20038;-62
2023/09/04 13:23:05;;;;;;;5.68;3.60;;;;;;;;;;5000929;28;20053;-62
2023/09/04 13:25:31;;;;;;;3.83;3.22;;;;;;;;;;4997115;28;20026;-61
2023/09/04 13:27:57;;;;;;;3.58;3.00;;;;;;;;;;5001006;28;20046;-62
2023/09/04 13:30:23;;;;;;;3.22;2.80;;;;;;;;;;4994889;28;20486;-62
2023/09/04 13:32:49;;;;;;;3.63;3.20;;;;;;;;;;4995624;28;20046;-61
2023/09/04 13:35:15;;;;;;;3.15;2.85;;;;;;;;;;4995324;28;20054;-62
2023/09/04 13:37:42;;;;;;;3.28;2.97;;;;;;;;;;5006412;28;20029;-62
2023/09/04 13:40:08;;;;;;;4.60;3.38;;;;;;;;;;4995932;28;20029;-61
2023/09/04 13:42:34;;;;;;;3.13;2.80;;;;;;;;;;5002872;28;20042;-62
2023/09/04 13:45:01;;;;;;;4.30;2.85;;;;;;;;;;4994838;28;20038;-61
2023/09/04 13:47:28;;;;;;;4.78;2.80;;;;;;;;;;4976315;28;20071;-62
2023/09/04 13:49:55;;;;;;;3.25;2.70;;;;;;;;;;4993747;28;20400;-62
2023/09/04 13:52:24;;;;;;;4.28;3.28;;;;;;;;;;4992323;28;20520;-63
2023/09/04 13:54:51;;;;;;;3.78;3.10;;;;;;;;;;5006599;28;20046;-62
2023/09/04 13:57:18;;;;;;;4.00;2.90;;;;;;;;;;4978789;28;20049;-62
2023/09/04 13:59:45;;;;;;;4.38;2.70;;;;;;;;;;4998052;28;20051;-62
2023/09/04 14:02:11;;;;;;;5.00;2.67;;;;;;;;;;4999677;28;20050;-62
2023/09/04 14:04:47;;;;;;;6.50;3.78;;;;;;;;;;5000052;28;20029;-62
2023/09/04 14:07:22;;;;;;;4.53;2.92;;;;;;;;;;4995393;28;20034;-62
2023/09/04 14:09:48;;;;;;;4.50;3.00;;;;;;;;;;4996945;28;20494;-62
2023/09/04 14:12:15;;;;;;;2.90;2.60;;;;;;;;;;5001408;28;20033;-62
2023/09/04 14:14:41;;;;;;;4.90;2.90;;;;;;;;;;4994835;28;20056;-62
2023/09/04 14:17:07;;;;;;;4.95;2.95;;;;;;;;;;4991322;28;20501;-62
2023/09/04 14:19:33;;;;;;;4.53;2.50;;;;;;;;;;4994622;28;20046;-62
2023/09/04 14:21:59;;;;;;;4.53;3.33;;;;;;;;;;5001433;28;20037;-62
2023/09/04 14:24:25;;;;;;;4.03;2.92;;;;;;;;;;5003446;28;20101;-62
2023/09/04 14:26:52;;;;;;;3.80;3.25;;;;;;;;;;5005627;28;20063;-62
2023/09/04 14:29:18;;;;;;;3.15;2.85;;;;;;;;;;4996328;28;20038;-62
2023/09/04 14:31:45;;;;;;;4.85;2.88;;;;;;;;;;5001072;28;20037;-62
2023/09/04 14:34:11;;;;;;;4.68;3.20;;;;;;;;;;4985425;28;20409;-62
2023/09/04 14:36:37;;;;;;;4.53;3.05;;;;;;;;;;4998980;28;20058;-62
2023/09/04 14:39:04;;;;;;;4.35;2.97;;;;;;;;;;4981480;28;20045;-62
2023/09/04 14:41:31;;;;;;;5.47;3.10;;;;;;;;;;4996441;28;20041;-60
2023/09/04 14:43:58;;;;;;;3.28;2.97;;;;;;;;;;4997172;28;20050;-59